Pasadena, Florida
Current Conditions -  °F | °C
As of 6:53 AM on Thursday 23 Oct 2014 (Local Time) from KSPG Reporting Station
Clear Clear  
Wind Chill: 69°   Ceiling: Unl
Heat Index: 69°   Visibility: 10mi
Dew Point: 60°   Wind: 17mph
Humidity: 73%   Direction: 70°ENE
Pressure: 29.96"   Gusts: NA
Location:  27.7562°N, 82.7184°W
Report Text: KSPG 231053Z 07015KT 10SM CLR 21/16 A2996 RMK AO2 SLP144 T02060156
Loading
Personal Weather Stations






























Interactive Weather Map
Tropical Storm Tracking
New forecast layout! Learn more

10-Day Weather Forecast

Advertisements
Track Severe Weather on mobile